createdAt,value
2022-09-28T00:00:19.773Z,95.48
2022-09-28T00:02:46.517Z,94.91
2022-09-28T00:05:13.181Z,95.42
2022-09-28T00:07:39.849Z,95.72
2022-09-28T00:10:06.614Z,96.05
2022-09-28T00:12:33.129Z,96.43
2022-09-28T00:14:59.752Z,96.19
2022-09-28T00:17:26.378Z,96.76
2022-09-28T00:19:53.108Z,95.85
2022-09-28T00:22:20.173Z,95.71
2022-09-28T00:24:46.873Z,95.15
2022-09-28T00:27:13.776Z,95.16
2022-09-28T00:29:40.547Z,95.67
2022-09-28T00:32:11.165Z,95.56
2022-09-28T00:34:41.998Z,95.45
2022-09-28T00:37:08.673Z,95.44
2022-09-28T00:39:35.896Z,95.82
2022-09-28T00:42:03.023Z,94.86
2022-09-28T00:44:41.759Z,95.42
2022-09-28T00:47:39.269Z,95.70
2022-09-28T00:50:24.520Z,96.15
2022-09-28T00:53:01.385Z,95.89
2022-09-28T00:55:50.775Z,95.77
2022-09-28T00:58:38.508Z,95.94
2022-09-28T01:01:05.234Z,95.73
2022-09-28T01:03:32.112Z,95.59
2022-09-28T01:05:59.831Z,96.33
2022-09-28T01:08:26.538Z,96.33
2022-09-28T01:10:53.336Z,96.22
2022-09-28T01:13:20.045Z,96.73
2022-09-28T01:15:53.681Z,96.85
2022-09-28T01:18:25.628Z,96.96
2022-09-28T01:21:05.554Z,96.91
2022-09-28T01:24:02.737Z,97.19
2022-09-28T01:26:56.941Z,97.01
2022-09-28T01:29:43.741Z,98.10
2022-09-28T01:32:32.033Z,97.14
2022-09-28T01:35:13.466Z,98.30
2022-09-28T01:37:53.100Z,98.05
2022-09-28T01:40:21.775Z,97.44
2022-09-28T01:42:50.978Z,97.34
2022-09-28T01:45:43.497Z,97.98
2022-09-28T01:48:10.129Z,98.49
2022-09-28T01:50:38.477Z,98.32
2022-09-28T01:53:29.671Z,98.94
2022-09-28T01:55:59.294Z,98.24
2022-09-28T01:59:01.331Z,99.35
2022-09-28T02:01:33.518Z,99.12
2022-09-28T02:04:23.373Z,99.06
2022-09-28T02:06:56.789Z,100.00
2022-09-28T02:09:33.901Z,100.00
2022-09-28T02:12:06.570Z,100.00
2022-09-28T02:14:33.293Z,100.00
2022-09-28T02:16:59.972Z,100.00
2022-09-28T02:19:28.001Z,99.79
2022-09-28T02:22:19.446Z,100.00
2022-09-28T02:25:07.650Z,99.50
2022-09-28T02:27:46.000Z,100.00
2022-09-28T02:30:12.714Z,100.00
2022-09-28T02:32:41.141Z,100.00
2022-09-28T02:35:16.112Z,100.00
2022-09-28T02:37:42.797Z,100.00
2022-09-28T02:40:19.504Z,100.00
2022-09-28T02:42:49.360Z,100.00
2022-09-28T02:45:23.704Z,100.00
2022-09-28T02:47:59.305Z,100.00
2022-09-28T02:50:30.171Z,100.00
2022-09-28T02:53:11.776Z,100.00
2022-09-28T02:56:16.812Z,100.00
2022-09-28T02:59:02.248Z,100.00
2022-09-28T03:01:48.996Z,100.00
2022-09-28T03:04:32.219Z,100.00
2022-09-28T03:07:14.419Z,100.00
2022-09-28T03:09:45.672Z,100.00
2022-09-28T03:12:13.331Z,100.00
2022-09-28T03:14:39.908Z,100.00
2022-09-28T03:17:06.498Z,100.00
2022-09-28T03:19:34.118Z,100.00
2022-09-28T03:22:00.977Z,100.00
2022-09-28T03:24:27.618Z,100.00
2022-09-28T03:26:54.282Z,100.00
2022-09-28T03:29:20.859Z,100.00
2022-09-28T03:31:47.612Z,100.00
2022-09-28T03:34:14.270Z,100.00
2022-09-28T03:36:40.956Z,100.00
2022-09-28T03:39:07.540Z,100.00
2022-09-28T03:41:34.434Z,100.00
2022-09-28T03:44:01.171Z,100.00
2022-09-28T03:46:27.837Z,100.00
2022-09-28T03:48:56.817Z,100.00
2022-09-28T03:51:23.440Z,100.00
2022-09-28T03:53:50.198Z,100.00
2022-09-28T03:56:16.750Z,100.00
2022-09-28T03:58:43.469Z,100.00
2022-09-28T04:01:16.445Z,100.00
2022-09-28T04:03:44.027Z,100.00
2022-09-28T04:06:10.853Z,100.00
2022-09-28T04:08:37.406Z,100.00
2022-09-28T04:11:04.074Z,100.00
2022-09-28T04:13:31.156Z,100.00
2022-09-28T04:15:59.294Z,100.00
2022-09-28T04:18:26.321Z,100.00
2022-09-28T04:20:59.735Z,100.00
2022-09-28T04:23:27.777Z,100.00
2022-09-28T04:25:54.632Z,100.00
2022-09-28T04:28:21.756Z,100.00
2022-09-28T04:30:48.702Z,100.00
2022-09-28T04:33:15.387Z,100.00
2022-09-28T04:35:41.922Z,100.00
2022-09-28T04:38:08.583Z,100.00
2022-09-28T04:40:35.134Z,100.00
2022-09-28T04:43:02.221Z,100.00
2022-09-28T04:45:28.896Z,100.00
2022-09-28T04:47:55.567Z,100.00
2022-09-28T04:50:22.513Z,100.00
2022-09-28T04:52:49.149Z,100.00
2022-09-28T04:55:16.149Z,100.00
2022-09-28T04:57:42.740Z,100.00
2022-09-28T05:00:09.901Z,100.00
2022-09-28T05:02:36.903Z,99.80
2022-09-28T05:05:03.656Z,100.00
2022-09-28T05:07:31.179Z,100.00
2022-09-28T05:09:58.258Z,100.00
2022-09-28T05:12:24.887Z,99.54
2022-09-28T05:14:51.573Z,99.83
2022-09-28T05:17:18.169Z,99.65
2022-09-28T05:19:44.753Z,99.86
2022-09-28T05:22:11.495Z,99.49
2022-09-28T05:24:38.705Z,99.70
2022-09-28T05:27:06.121Z,99.23
2022-09-28T05:29:32.880Z,98.83
2022-09-28T05:31:59.647Z,98.31
2022-09-28T05:34:26.312Z,98.40
2022-09-28T05:36:52.882Z,98.03
2022-09-28T05:39:19.767Z,97.76
2022-09-28T05:41:46.415Z,98.18
2022-09-28T05:44:13.062Z,97.42
2022-09-28T05:46:39.601Z,97.96
2022-09-28T05:49:06.329Z,97.06
2022-09-28T05:51:32.906Z,97.16
2022-09-28T05:54:04.620Z,97.86
2022-09-28T05:56:32.690Z,97.36
2022-09-28T05:58:59.678Z,98.02
2022-09-28T06:01:26.489Z,96.88
2022-09-28T06:03:53.190Z,97.44
2022-09-28T06:06:21.176Z,97.38
2022-09-28T06:08:47.836Z,96.44
2022-09-28T06:11:14.469Z,96.73
2022-09-28T06:13:41.117Z,96.79
2022-09-28T06:16:08.067Z,96.36
2022-09-28T06:18:35.009Z,96.43
2022-09-28T06:21:01.723Z,95.99
2022-09-28T06:23:29.033Z,95.85
2022-09-28T06:25:55.628Z,95.83
2022-09-28T06:28:22.160Z,95.84
2022-09-28T06:30:48.807Z,95.55
2022-09-28T06:33:15.459Z,95.54
2022-09-28T06:35:42.295Z,96.18
2022-09-28T06:38:09.060Z,96.80
2022-09-28T06:40:35.805Z,97.12
2022-09-28T06:43:05.583Z,96.58
2022-09-28T06:45:32.460Z,97.14
2022-09-28T06:47:59.900Z,97.92
2022-09-28T06:50:28.243Z,97.73
2022-09-28T06:52:54.987Z,97.60
2022-09-28T06:55:23.060Z,98.08
2022-09-28T06:57:59.959Z,98.79
2022-09-28T07:00:30.839Z,98.76
2022-09-28T07:02:57.595Z,98.51
2022-09-28T07:05:24.264Z,98.88
2022-09-28T07:07:50.845Z,98.62
2022-09-28T07:10:17.536Z,98.78
2022-09-28T07:12:44.332Z,99.60
2022-09-28T07:15:11.112Z,99.58
2022-09-28T07:17:50.799Z,99.46
2022-09-28T07:20:21.479Z,99.54
2022-09-28T07:22:53.201Z,98.64
2022-09-28T07:25:19.736Z,98.89
2022-09-28T07:27:46.589Z,98.83
2022-09-28T07:30:13.840Z,99.13
2022-09-28T07:32:40.487Z,98.76
2022-09-28T07:35:07.476Z,99.07
2022-09-28T07:37:37.488Z,99.67
2022-09-28T07:40:04.840Z,99.12
2022-09-28T07:42:31.715Z,99.78
2022-09-28T07:44:58.744Z,98.77
2022-09-28T07:47:27.766Z,99.41
2022-09-28T07:49:56.706Z,99.74
2022-09-28T07:52:23.643Z,98.89
2022-09-28T07:54:50.959Z,99.28
2022-09-28T07:57:18.294Z,99.08
2022-09-28T07:59:46.937Z,99.79
2022-09-28T08:02:13.721Z,100.00
2022-09-28T08:04:40.357Z,100.00
2022-09-28T08:07:10.721Z,100.00
2022-09-28T08:09:37.540Z,100.00
2022-09-28T08:12:04.532Z,100.00
2022-09-28T08:14:32.006Z,100.00
2022-09-28T08:16:59.104Z,100.00
2022-09-28T08:19:25.818Z,100.00
2022-09-28T08:21:52.465Z,100.00
2022-09-28T08:24:19.304Z,100.00
2022-09-28T08:26:46.176Z,100.00
2022-09-28T08:29:12.875Z,100.00
2022-09-28T08:31:39.649Z,100.00
2022-09-28T08:34:06.671Z,100.00
2022-09-28T08:36:33.531Z,100.00
2022-09-28T08:39:00.226Z,100.00
2022-09-28T08:41:53.015Z,100.00
2022-09-28T08:44:21.149Z,100.00
2022-09-28T08:46:49.789Z,100.00
2022-09-28T08:49:26.122Z,100.00
2022-09-28T08:52:14.045Z,100.00
2022-09-28T08:54:58.928Z,100.00
2022-09-28T08:57:30.174Z,100.00
2022-09-28T08:59:57.921Z,100.00
2022-09-28T09:02:31.528Z,99.97
2022-09-28T09:04:58.322Z,99.55
2022-09-28T09:07:43.747Z,100.00
2022-09-28T09:10:37.552Z,99.86
2022-09-28T09:13:08.782Z,99.49
2022-09-28T09:15:52.820Z,98.76
2022-09-28T09:18:36.384Z,98.55
2022-09-28T09:21:42.360Z,98.69
2022-09-28T09:24:21.324Z,98.76
2022-09-28T09:26:48.141Z,99.60
2022-09-28T09:29:53.224Z,98.53
2022-09-28T09:32:31.964Z,96.45
2022-09-28T09:35:23.336Z,96.30
2022-09-28T09:38:02.704Z,95.80
2022-09-28T09:40:41.614Z,96.37
2022-09-28T09:43:33.713Z,93.69
2022-09-28T09:46:12.054Z,94.68
2022-09-28T09:48:50.744Z,93.93
2022-09-28T09:51:49.804Z,93.33
2022-09-28T09:54:24.419Z,93.56
2022-09-28T09:56:55.032Z,93.14
2022-09-28T09:59:27.471Z,92.68
2022-09-28T10:01:56.049Z,91.66
2022-09-28T10:04:36.429Z,89.61
2022-09-28T10:07:05.149Z,89.75
2022-09-28T10:09:37.920Z,88.84
2022-09-28T10:12:04.645Z,86.46
2022-09-28T10:14:31.285Z,86.38
2022-09-28T10:16:58.142Z,85.82
2022-09-28T10:19:29.700Z,86.27
2022-09-28T10:21:56.333Z,87.49
2022-09-28T10:24:29.622Z,88.36
2022-09-28T10:26:56.668Z,87.02
2022-09-28T10:29:25.346Z,88.78
2022-09-28T10:31:52.993Z,86.28
2022-09-28T10:34:28.614Z,88.06
2022-09-28T10:37:00.813Z,87.32
2022-09-28T10:39:28.582Z,87.05
2022-09-28T10:41:55.589Z,87.48
2022-09-28T10:44:22.251Z,87.19
2022-09-28T10:46:56.402Z,88.61
2022-09-28T10:49:23.133Z,87.95
2022-09-28T10:51:50.987Z,87.98
2022-09-28T10:54:18.606Z,86.69
2022-09-28T10:56:45.710Z,87.46
2022-09-28T10:59:24.612Z,86.96
2022-09-28T11:02:34.758Z,87.86
2022-09-28T11:05:05.573Z,87.83
2022-09-28T11:07:33.356Z,88.39
2022-09-28T11:10:00.393Z,87.84
2022-09-28T11:12:29.205Z,86.69
2022-09-28T11:14:58.028Z,87.43
2022-09-28T11:17:32.466Z,87.63
2022-09-28T11:20:26.055Z,88.67
2022-09-28T11:22:55.761Z,88.39
2022-09-28T11:25:24.304Z,87.99
2022-09-28T11:27:50.742Z,86.79
2022-09-28T11:30:29.967Z,87.29
2022-09-28T11:33:04.928Z,88.00
2022-09-28T11:35:46.465Z,88.26
2022-09-28T11:38:38.460Z,87.26
2022-09-28T11:41:23.402Z,87.69
2022-09-28T11:44:09.192Z,88.06
2022-09-28T11:46:55.475Z,87.84
2022-09-28T11:49:54.055Z,88.62
2022-09-28T11:52:24.787Z,87.88
2022-09-28T11:54:55.006Z,87.59
2022-09-28T11:57:24.362Z,87.38
2022-09-28T11:59:59.310Z,87.94
2022-09-28T12:02:34.473Z,87.14
2022-09-28T12:05:21.857Z,86.55
2022-09-28T12:07:54.809Z,86.50
2022-09-28T12:10:32.306Z,87.55
2022-09-28T12:13:19.660Z,84.89
2022-09-28T12:16:27.611Z,83.32
2022-09-28T12:19:08.073Z,83.47
2022-09-28T12:21:46.274Z,83.19
2022-09-28T12:24:17.060Z,84.93
2022-09-28T12:26:46.692Z,83.18
2022-09-28T12:29:15.599Z,82.49
2022-09-28T12:32:07.414Z,82.97
2022-09-28T12:34:34.392Z,84.11
2022-09-28T12:37:15.168Z,82.98
2022-09-28T12:40:02.316Z,83.45
2022-09-28T12:42:38.329Z,83.68
2022-09-28T12:45:23.738Z,82.67
2022-09-28T12:48:05.477Z,83.55
2022-09-28T12:50:55.986Z,83.91
2022-09-28T12:53:45.391Z,82.63
2022-09-28T12:56:20.836Z,82.58
2022-09-28T12:59:15.542Z,83.12
2022-09-28T13:02:19.162Z,81.95
2022-09-28T13:05:19.434Z,81.32
2022-09-28T13:08:06.488Z,80.26
2022-09-28T13:10:51.584Z,81.09
2022-09-28T13:13:31.351Z,81.42
2022-09-28T13:16:15.962Z,80.97
2022-09-28T13:18:48.592Z,80.43
2022-09-28T13:21:37.173Z,80.04
2022-09-28T13:24:20.772Z,81.23
2022-09-28T13:26:50.888Z,82.71
2022-09-28T13:29:18.495Z,81.70
2022-09-28T13:31:56.451Z,81.32
2022-09-28T13:34:26.297Z,81.37
2022-09-28T13:37:14.533Z,82.07
2022-09-28T13:39:44.133Z,81.66
2022-09-28T13:42:44.420Z,80.38
2022-09-28T13:45:22.976Z,81.29
2022-09-28T13:48:14.895Z,81.54
2022-09-28T13:51:12.384Z,80.86
2022-09-28T13:53:52.295Z,81.60
2022-09-28T13:56:55.008Z,79.92
2022-09-28T13:59:25.306Z,81.08
2022-09-28T14:02:27.340Z,80.48
2022-09-28T14:04:59.027Z,80.39
2022-09-28T14:07:46.747Z,80.35
2022-09-28T14:10:24.048Z,79.61
2022-09-28T14:12:51.645Z,80.52
2022-09-28T14:15:37.034Z,79.46
2022-09-28T14:18:25.107Z,79.90
2022-09-28T14:21:29.089Z,82.22
2022-09-28T14:24:03.982Z,80.50
2022-09-28T14:27:08.611Z,79.88
2022-09-28T14:29:36.488Z,80.35
2022-09-28T14:32:09.067Z,80.10
2022-09-28T14:34:43.575Z,79.58
2022-09-28T14:37:21.869Z,79.31
2022-09-28T14:39:48.717Z,81.23
2022-09-28T14:42:17.710Z,80.80
2022-09-28T14:45:07.665Z,79.88
2022-09-28T14:47:40.917Z,80.16
2022-09-28T14:50:19.930Z,81.15
2022-09-28T14:52:47.715Z,81.68
2022-09-28T14:55:15.310Z,82.39
2022-09-28T14:57:42.637Z,80.50
2022-09-28T15:00:30.263Z,79.71
2022-09-28T15:03:00.253Z,81.78
2022-09-28T15:05:32.254Z,82.05
2022-09-28T15:07:59.133Z,81.48
2022-09-28T15:10:28.712Z,81.17
2022-09-28T15:12:55.501Z,81.54
2022-09-28T15:15:38.187Z,82.54
2022-09-28T15:18:07.812Z,82.33
2022-09-28T15:20:39.601Z,82.54
2022-09-28T15:23:25.426Z,83.19
2022-09-28T15:25:52.585Z,83.05
2022-09-28T15:28:20.095Z,84.12
2022-09-28T15:30:46.937Z,84.42
2022-09-28T15:33:33.345Z,84.54
2022-09-28T15:36:05.296Z,84.77
2022-09-28T15:38:32.103Z,85.45
2022-09-28T15:40:58.921Z,85.12
2022-09-28T15:43:29.802Z,85.77
2022-09-28T15:46:07.624Z,85.71
2022-09-28T15:48:42.449Z,86.45
2022-09-28T15:51:10.218Z,86.32
2022-09-28T15:54:00.982Z,86.19
2022-09-28T15:56:28.137Z,86.12
2022-09-28T15:59:31.284Z,86.80
2022-09-28T16:02:12.474Z,87.16
2022-09-28T16:04:47.008Z,86.94
2022-09-28T16:07:13.495Z,87.53
2022-09-28T16:10:08.557Z,86.99
2022-09-28T16:12:38.120Z,86.91
2022-09-28T16:15:06.143Z,87.30
2022-09-28T16:17:34.347Z,87.12
2022-09-28T16:20:02.023Z,87.49
2022-09-28T16:22:29.170Z,86.96
2022-09-28T16:24:58.758Z,87.45
2022-09-28T16:27:41.890Z,87.44
2022-09-28T16:30:16.848Z,88.45
2022-09-28T16:32:58.632Z,88.45
2022-09-28T16:35:26.454Z,88.76
2022-09-28T16:38:03.114Z,88.41
2022-09-28T16:40:30.372Z,88.71
2022-09-28T16:42:59.595Z,88.46
2022-09-28T16:45:26.224Z,88.51
2022-09-28T16:47:52.870Z,88.91
2022-09-28T16:50:20.576Z,88.65
2022-09-28T16:52:49.557Z,89.28
2022-09-28T16:55:39.397Z,89.02
2022-09-28T16:58:03.426Z,88.70
2022-09-28T17:00:30.068Z,88.93
2022-09-28T17:02:56.772Z,88.45
2022-09-28T17:05:26.160Z,89.23
2022-09-28T17:08:00.354Z,89.50
2022-09-28T17:11:12.611Z,89.74
2022-09-28T17:13:33.211Z,89.80
2022-09-28T17:16:01.253Z,88.71
2022-09-28T17:18:28.018Z,89.79
2022-09-28T17:20:55.858Z,90.09
2022-09-28T17:23:22.484Z,88.96
2022-09-28T17:25:49.170Z,89.43
2022-09-28T17:28:27.077Z,89.37
2022-09-28T17:30:54.123Z,89.36
2022-09-28T17:33:22.506Z,89.44
2022-09-28T17:35:49.264Z,89.27
2022-09-28T17:38:16.038Z,90.00
2022-09-28T17:40:43.411Z,90.12
2022-09-28T17:43:10.094Z,90.46
2022-09-28T17:45:37.491Z,90.30
2022-09-28T17:48:04.084Z,91.21
2022-09-28T17:50:32.552Z,90.43
2022-09-28T17:52:59.217Z,91.24
2022-09-28T17:55:27.732Z,91.01
2022-09-28T17:57:54.881Z,91.36
2022-09-28T18:00:21.858Z,91.57
2022-09-28T18:02:48.660Z,91.38
2022-09-28T18:05:15.354Z,91.63
2022-09-28T18:07:47.299Z,91.43
2022-09-28T18:10:15.637Z,91.33
2022-09-28T18:12:42.306Z,91.54
2022-09-28T18:15:09.508Z,91.82
2022-09-28T18:17:36.264Z,92.48
2022-09-28T18:20:02.918Z,92.77
2022-09-28T18:22:29.592Z,92.59
2022-09-28T18:24:56.271Z,92.30
2022-09-28T18:27:23.226Z,92.80
2022-09-28T18:29:50.006Z,92.53
2022-09-28T18:32:16.674Z,93.33
2022-09-28T18:34:43.299Z,93.25
2022-09-28T18:37:10.303Z,92.92
2022-09-28T18:39:37.237Z,92.93
2022-09-28T18:42:04.038Z,93.07
2022-09-28T18:44:30.698Z,92.83
2022-09-28T18:46:57.419Z,92.36
2022-09-28T18:49:24.404Z,92.74
2022-09-28T18:51:51.274Z,93.38
2022-09-28T18:54:18.005Z,93.12
2022-09-28T18:56:44.721Z,93.28
2022-09-28T18:59:12.415Z,92.83
2022-09-28T19:01:39.518Z,93.00
2022-09-28T19:04:07.722Z,92.54
2022-09-28T19:06:34.492Z,92.65
2022-09-28T19:09:01.265Z,93.49
2022-09-28T19:11:28.395Z,93.05
2022-09-28T19:13:55.069Z,93.90
2022-09-28T19:16:23.834Z,94.17
2022-09-28T19:18:50.609Z,93.58
2022-09-28T19:21:17.380Z,94.04
2022-09-28T19:23:48.758Z,93.17
2022-09-28T19:26:20.143Z,94.09
2022-09-28T19:28:47.296Z,93.44
2022-09-28T19:31:14.037Z,93.99
2022-09-28T19:33:40.851Z,93.09
2022-09-28T19:36:15.607Z,93.30
2022-09-28T19:38:42.374Z,93.75
2022-09-28T19:41:12.821Z,93.65
2022-09-28T19:43:39.491Z,94.26
2022-09-28T19:46:06.746Z,93.54
2022-09-28T19:48:33.805Z,93.75
2022-09-28T19:51:05.164Z,93.54
2022-09-28T19:53:33.641Z,94.41
2022-09-28T19:56:00.665Z,94.14
2022-09-28T19:58:31.755Z,93.65
2022-09-28T20:00:58.493Z,94.70
2022-09-28T20:03:25.640Z,94.80
2022-09-28T20:05:58.888Z,94.73
2022-09-28T20:08:26.097Z,94.03
2022-09-28T20:10:53.514Z,94.38
2022-09-28T20:13:23.785Z,94.47
2022-09-28T20:15:50.787Z,93.91
2022-09-28T20:18:17.388Z,93.82
2022-09-28T20:20:43.954Z,94.08
2022-09-28T20:23:10.628Z,94.58
2022-09-28T20:25:37.355Z,94.21
2022-09-28T20:28:04.853Z,93.82
2022-09-28T20:30:31.883Z,93.55
2022-09-28T20:32:58.566Z,93.41
2022-09-28T20:35:32.585Z,93.42
2022-09-28T20:37:59.884Z,93.48
2022-09-28T20:40:26.541Z,93.25
2022-09-28T20:42:53.214Z,93.20
2022-09-28T20:45:20.215Z,93.28
2022-09-28T20:47:46.871Z,93.87
2022-09-28T20:50:13.482Z,93.58
2022-09-28T20:52:40.106Z,93.72
2022-09-28T20:55:07.410Z,93.13
2022-09-28T20:57:33.976Z,94.60
2022-09-28T21:00:00.737Z,93.67
2022-09-28T21:02:27.494Z,93.52
2022-09-28T21:04:54.102Z,94.12
2022-09-28T21:07:20.735Z,92.96
2022-09-28T21:09:47.476Z,93.00
2022-09-28T21:12:14.115Z,93.03
2022-09-28T21:14:40.701Z,93.79
2022-09-28T21:17:07.341Z,93.18
2022-09-28T21:19:34.012Z,93.69
2022-09-28T21:22:00.513Z,93.99
2022-09-28T21:24:27.117Z,93.11
2022-09-28T21:26:54.049Z,93.52
2022-09-28T21:29:20.706Z,92.98
2022-09-28T21:31:47.346Z,92.77
2022-09-28T21:34:15.547Z,93.98
2022-09-28T21:36:44.176Z,93.82
2022-09-28T21:39:10.891Z,93.21
2022-09-28T21:41:37.643Z,93.50
2022-09-28T21:44:04.306Z,92.62
2022-09-28T21:46:30.995Z,92.68
2022-09-28T21:48:57.643Z,92.96
2022-09-28T21:51:24.237Z,93.18
2022-09-28T21:53:50.880Z,93.31
2022-09-28T21:56:17.541Z,92.56
2022-09-28T21:58:44.273Z,93.08
2022-09-28T22:01:12.378Z,92.90
2022-09-28T22:03:38.977Z,92.37
2022-09-28T22:06:05.970Z,92.69
2022-09-28T22:08:33.008Z,92.19
2022-09-28T22:11:00.044Z,92.89
2022-09-28T22:13:30.613Z,93.39
2022-09-28T22:15:57.838Z,93.12
2022-09-28T22:18:25.519Z,92.61
2022-09-28T22:21:12.550Z,92.59
2022-09-28T22:23:39.447Z,92.66
2022-09-28T22:26:10.855Z,92.51
2022-09-28T22:28:37.739Z,91.94
2022-09-28T22:31:04.637Z,92.33
2022-09-28T22:33:31.343Z,93.00
2022-09-28T22:35:57.969Z,92.72
2022-09-28T22:38:24.839Z,92.73
2022-09-28T22:40:52.672Z,92.35
2022-09-28T22:43:19.347Z,92.69
2022-09-28T22:45:45.941Z,92.89
2022-09-28T22:48:12.597Z,93.21
2022-09-28T22:50:39.537Z,93.61
2022-09-28T22:53:06.413Z,93.18
2022-09-28T22:55:33.125Z,93.73
2022-09-28T22:58:01.348Z,93.29
2022-09-28T23:00:28.052Z,92.74
2022-09-28T23:02:54.692Z,92.96
2022-09-28T23:05:21.585Z,93.29
2022-09-28T23:07:48.229Z,92.86
2022-09-28T23:10:14.865Z,93.81
2022-09-28T23:12:41.510Z,93.74
2022-09-28T23:15:09.064Z,93.60
2022-09-28T23:17:35.691Z,94.16
2022-09-28T23:20:02.464Z,94.71
2022-09-28T23:22:29.087Z,94.62
2022-09-28T23:24:55.713Z,94.11
2022-09-28T23:27:22.664Z,94.13
2022-09-28T23:29:49.560Z,94.22
2022-09-28T23:32:16.353Z,93.44
2022-09-28T23:34:43.441Z,93.47
2022-09-28T23:37:10.197Z,93.67
2022-09-28T23:39:36.802Z,94.33
2022-09-28T23:42:03.435Z,94.46
2022-09-28T23:44:30.218Z,93.56
2022-09-28T23:46:56.875Z,93.40
2022-09-28T23:49:23.630Z,94.64
2022-09-28T23:51:50.410Z,93.94
2022-09-28T23:54:17.289Z,94.32
2022-09-28T23:56:43.869Z,94.47
2022-09-28T23:59:10.616Z,94.55
